sensor_id;sensor_type;location;lat;lon;timestamp;pressure;altitude;pressure_sealevel;temperature;humidity
45113;BME280;30873;53.908;27.576;2023-05-14T00:01:54;1025;;;16.9;72.3
45113;BME280;30873;53.908;27.576;2023-05-14T00:06:40;1025;;;16.9;71.2
45113;BME280;30873;53.908;27.576;2023-05-14T00:12:06;1025;;;16.8;75.2
45113;BME280;30873;53.908;27.576;2023-05-14T00:16:52;1025;;;16.7;77.1
45113;BME280;30873;53.908;27.576;2023-05-14T00:21:56;1025;;;16.7;77.8
45113;BME280;30873;53.908;27.576;2023-05-14T00:26:36;1025;;;16.6;78
45113;BME280;30873;53.908;27.576;2023-05-14T00:32:06;1025;;;16.6;78.7
45113;BME280;30873;53.908;27.576;2023-05-14T00:36:18;1025;;;16.5;80
45113;BME280;30873;53.908;27.576;2023-05-14T00:41:48;1025.1;;;16.5;79.7
45113;BME280;30873;53.908;27.576;2023-05-14T00:46:40;1025.1;;;16.5;81.1
45113;BME280;30873;53.908;27.576;2023-05-14T00:51:18;1025.1;;;16.4;81
45113;BME280;30873;53.908;27.576;2023-05-14T00:56:52;1025.1;;;16.4;80.9
45113;BME280;30873;53.908;27.576;2023-05-14T01:01:40;1025;;;16.4;80.3
45113;BME280;30873;53.908;27.576;2023-05-14T01:06:31;1025;;;16.4;79.1
45113;BME280;30873;53.908;27.576;2023-05-14T01:11:56;1025;;;16.3;78.9
45113;BME280;30873;53.908;27.576;2023-05-14T01:16:38;1025.1;;;16.3;79.9
45113;BME280;30873;53.908;27.576;2023-05-14T01:21:42;1025;;;16.2;80.5
45113;BME280;30873;53.908;27.576;2023-05-14T01:27:06;1025;;;16.1;79.5
45113;BME280;30873;53.908;27.576;2023-05-14T01:32:04;1025;;;16.1;80.3
45113;BME280;30873;53.908;27.576;2023-05-14T01:36:28;1025.1;;;16;83.9
45113;BME280;30873;53.908;27.576;2023-05-14T01:41:42;1025.1;;;15.9;87.4
45113;BME280;30873;53.908;27.576;2023-05-14T01:47:06;1025.1;;;15.8;88.1
45113;BME280;30873;53.908;27.576;2023-05-14T01:52:06;1025.1;;;15.8;85.1
45113;BME280;30873;53.908;27.576;2023-05-14T01:56:42;1025.1;;;15.8;83.4
45113;BME280;30873;53.908;27.576;2023-05-14T02:01:18;1025.1;;;15.8;83.2
45113;BME280;30873;53.908;27.576;2023-05-14T02:07:06;1025.1;;;15.8;83.2
45113;BME280;30873;53.908;27.576;2023-05-14T02:11:56;1025.1;;;15.7;86.9
45113;BME280;30873;53.908;27.576;2023-05-14T02:16:28;1025.1;;;15.7;88.6
45113;BME280;30873;53.908;27.576;2023-05-14T02:21:26;1025.1;;;15.6;89.6
45113;BME280;30873;53.908;27.576;2023-05-14T02:27:08;1025.1;;;15.5;92.4
45113;BME280;30873;53.908;27.576;2023-05-14T02:31:18;1025.1;;;15.5;92.5
45113;BME280;30873;53.908;27.576;2023-05-14T02:36:38;1025.1;;;15.6;90.6
45113;BME280;30873;53.908;27.576;2023-05-14T02:42:08;1025.1;;;15.6;91.5
45113;BME280;30873;53.908;27.576;2023-05-14T02:46:18;1025.2;;;15.6;90.6
45113;BME280;30873;53.908;27.576;2023-05-14T02:51:28;1025.2;;;15.6;90.2
45113;BME280;30873;53.908;27.576;2023-05-14T02:57:08;1025.2;;;15.7;89
45113;BME280;30873;53.908;27.576;2023-05-14T03:01:18;1025.2;;;15.7;90.7
45113;BME280;30873;53.908;27.576;2023-05-14T03:06:58;1025.3;;;15.7;90.3
45113;BME280;30873;53.908;27.576;2023-05-14T03:11:42;1025.3;;;15.9;89.1
45113;BME280;30873;53.908;27.576;2023-05-14T03:17:02;1025.3;;;15.9;88.2
45113;BME280;30873;53.908;27.576;2023-05-14T03:21:52;1025.3;;;16;88.2
45113;BME280;30873;53.908;27.576;2023-05-14T03:27:08;1025.3;;;16.1;85.8
45113;BME280;30873;53.908;27.576;2023-05-14T03:31:52;1025.3;;;16.3;80.9
45113;BME280;30873;53.908;27.576;2023-05-14T03:36:54;1025.3;;;16.5;76.1
45113;BME280;30873;53.908;27.576;2023-05-14T03:41:44;1025.3;;;16.8;71.4
45113;BME280;30873;53.908;27.576;2023-05-14T03:46:52;1025.3;;;16.9;69.2
45113;BME280;30873;53.908;27.576;2023-05-14T03:51:44;1025.3;;;17.2;66.5
45113;BME280;30873;53.908;27.576;2023-05-14T03:56:30;1025.3;;;17.3;64.8
45113;BME280;30873;53.908;27.576;2023-05-14T04:01:54;1025.3;;;17.5;63.8
45113;BME280;30873;53.908;27.576;2023-05-14T04:06:18;1025.3;;;17.7;62.8
45113;BME280;30873;53.908;27.576;2023-05-14T04:11:54;1025.3;;;17.9;62.6
45113;BME280;30873;53.908;27.576;2023-05-14T04:17:08;1025.3;;;18.1;59.7
45113;BME280;30873;53.908;27.576;2023-05-14T04:22:08;1025.3;;;18.4;57.2
45113;BME280;30873;53.908;27.576;2023-05-14T04:26:30;1025.3;;;18.6;56.1
45113;BME280;30873;53.908;27.576;2023-05-14T04:31:52;1025.3;;;18.9;54.7
45113;BME280;30873;53.908;27.576;2023-05-14T04:36:58;1025.4;;;19.1;53.2
45113;BME280;30873;53.908;27.576;2023-05-14T04:41:18;1025.4;;;19.2;52.9
45113;BME280;30873;53.908;27.576;2023-05-14T04:46:44;1025.4;;;19.3;53.2
45113;BME280;30873;53.908;27.576;2023-05-14T04:51:52;1025.4;;;19.4;53.1
45113;BME280;30873;53.908;27.576;2023-05-14T04:57:08;1025.4;;;19.7;52.7
45113;BME280;30873;53.908;27.576;2023-05-14T05:02:08;1025.3;;;19.9;51.7
45113;BME280;30873;53.908;27.576;2023-05-14T05:06:42;1025.3;;;20.2;50.6
45113;BME280;30873;53.908;27.576;2023-05-14T05:12:08;1025.3;;;20.5;49.9
45113;BME280;30873;53.908;27.576;2023-05-14T05:16:58;1025.3;;;21;48.1
45113;BME280;30873;53.908;27.576;2023-05-14T05:21:36;1025.3;;;21.6;45.1
45113;BME280;30873;53.908;27.576;2023-05-14T05:26:38;1025.3;;;22;43
45113;BME280;30873;53.908;27.576;2023-05-14T05:32:08;1025.3;;;22.3;40.9
45113;BME280;30873;53.908;27.576;2023-05-14T05:36:42;1025.3;;;22.7;39.8
45113;BME280;30873;53.908;27.576;2023-05-14T05:41:38;1025.3;;;23;38.8
45113;BME280;30873;53.908;27.576;2023-05-14T05:47:08;1025.2;;;23.4;38.2
45113;BME280;30873;53.908;27.576;2023-05-14T05:51:30;1025.2;;;23.7;37.2
45113;BME280;30873;53.908;27.576;2023-05-14T05:56:54;1025.2;;;23.8;36.1
45113;BME280;30873;53.908;27.576;2023-05-14T06:01:40;1025.2;;;23.9;36.1
45113;BME280;30873;53.908;27.576;2023-05-14T06:06:38;1025.2;;;24.2;35.1
45113;BME280;30873;53.908;27.576;2023-05-14T06:11:56;1025.2;;;24.5;34.8
45113;BME280;30873;53.908;27.576;2023-05-14T06:16:42;1025.1;;;24.6;33.8
45113;BME280;30873;53.908;27.576;2023-05-14T06:21:54;1025.1;;;24.8;33.4
45113;BME280;30873;53.908;27.576;2023-05-14T06:26:42;1025.2;;;25.2;32.5
45113;BME280;30873;53.908;27.576;2023-05-14T06:32:08;1025.1;;;25.3;31.4
45113;BME280;30873;53.908;27.576;2023-05-14T06:36:38;1025.1;;;25.1;31.2
45113;BME280;30873;53.908;27.576;2023-05-14T06:42:08;1025.1;;;25.4;30.7
45113;BME280;30873;53.908;27.576;2023-05-14T06:46:44;1025;;;25.4;30.8
45113;BME280;30873;53.908;27.576;2023-05-14T06:51:52;1025;;;25.7;30.2
45113;BME280;30873;53.908;27.576;2023-05-14T06:56:44;1025;;;26.1;29.8
45113;BME280;30873;53.908;27.576;2023-05-14T07:01:18;1025;;;26.2;29.5
45113;BME280;30873;53.908;27.576;2023-05-14T07:06:20;1025;;;26.2;29.3
45113;BME280;30873;53.908;27.576;2023-05-14T07:11:30;1025;;;26.4;28.8
45113;BME280;30873;53.908;27.576;2023-05-14T07:16:38;1025;;;26.6;28.5
45113;BME280;30873;53.908;27.576;2023-05-14T07:22:06;1024.9;;;26.3;28.1
45113;BME280;30873;53.908;27.576;2023-05-14T07:27:06;1025;;;26.2;28.3
45113;BME280;30873;53.908;27.576;2023-05-14T07:31:30;1025;;;26.7;28.1
45113;BME280;30873;53.908;27.576;2023-05-14T07:36:52;1025;;;26.8;27.4
45113;BME280;30873;53.908;27.576;2023-05-14T07:41:56;1025;;;27.2;26.7
45113;BME280;30873;53.908;27.576;2023-05-14T07:46:18;1024.9;;;27.1;25.9
45113;BME280;30873;53.908;27.576;2023-05-14T07:51:42;1024.9;;;27.2;25.7
45113;BME280;30873;53.908;27.576;2023-05-14T07:56:52;1024.9;;;27.2;25.7
45113;BME280;30873;53.908;27.576;2023-05-14T08:02:06;1024.8;;;27.4;25.3
45113;BME280;30873;53.908;27.576;2023-05-14T08:07:04;1024.8;;;27.6;25.2
45113;BME280;30873;53.908;27.576;2023-05-14T08:11:28;1024.8;;;27.6;25.3
45113;BME280;30873;53.908;27.576;2023-05-14T08:16:20;1024.7;;;27.9;24.7
45113;BME280;30873;53.908;27.576;2023-05-14T08:21:56;1024.7;;;28;24.9
45113;BME280;30873;53.908;27.576;2023-05-14T08:26:30;1024.6;;;28.2;24.2
45113;BME280;30873;53.908;27.576;2023-05-14T08:31:38;1024.6;;;28.3;24.1
45113;BME280;30873;53.908;27.576;2023-05-14T08:36:28;1024.6;;;28.3;23.9
45113;BME280;30873;53.908;27.576;2023-05-14T08:41:18;1024.5;;;28.9;23.7
45113;BME280;30873;53.908;27.576;2023-05-14T08:46:50;1024.5;;;29;23.3
45113;BME280;30873;53.908;27.576;2023-05-14T08:52:02;1024.5;;;29;23.1
45113;BME280;30873;53.908;27.576;2023-05-14T08:56:28;1024.4;;;29.2;22.9
45113;BME280;30873;53.908;27.576;2023-05-14T09:02:06;1024.4;;;29.3;22.9
45113;BME280;30873;53.908;27.576;2023-05-14T09:06:42;1024.3;;;29.7;22.5
45113;BME280;30873;53.908;27.576;2023-05-14T09:11:18;1024.2;;;29.9;22
45113;BME280;30873;53.908;27.576;2023-05-14T09:16:56;1024.3;;;30.3;21.8
45113;BME280;30873;53.908;27.576;2023-05-14T09:21:40;1024.3;;;30.5;21.6
45113;BME280;30873;53.908;27.576;2023-05-14T09:27:06;1024.2;;;30.8;21.1
45113;BME280;30873;53.908;27.576;2023-05-14T09:31:52;1024.2;;;31.2;20.7
45113;BME280;30873;53.908;27.576;2023-05-14T09:37:07;1024.1;;;31.7;20
45113;BME280;30873;53.908;27.576;2023-05-14T09:41:38;1024.1;;;32.4;19.5
45113;BME280;30873;53.908;27.576;2023-05-14T09:47:04;1024;;;33.3;18.8
45113;BME280;30873;53.908;27.576;2023-05-14T09:51:28;1023.9;;;33.7;18.5
45113;BME280;30873;53.908;27.576;2023-05-14T09:56:52;1023.9;;;34.4;18
45113;BME280;30873;53.908;27.576;2023-05-14T10:01:18;1023.9;;;34.9;17.6
45113;BME280;30873;53.908;27.576;2023-05-14T10:06:18;1023.9;;;35.3;17.4
45113;BME280;30873;53.908;27.576;2023-05-14T10:11:56;1023.7;;;36.8;16.7
45113;BME280;30873;53.908;27.576;2023-05-14T10:16:41;1023.7;;;37.9;15.8
45113;BME280;30873;53.908;27.576;2023-05-14T10:21:30;1023.7;;;38.4;15.6
45113;BME280;30873;53.908;27.576;2023-05-14T10:27:08;1023.7;;;39.4;14.9
45113;BME280;30873;53.908;27.576;2023-05-14T10:32:08;1023.5;;;40.1;14.6
45113;BME280;30873;53.908;27.576;2023-05-14T10:36:18;1023.5;;;40.4;14.2
45113;BME280;30873;53.908;27.576;2023-05-14T10:41:54;1023.4;;;40.5;14.3
45113;BME280;30873;53.908;27.576;2023-05-14T10:46:58;1023.4;;;40.5;14.2
45113;BME280;30873;53.908;27.576;2023-05-14T10:51:18;1023.3;;;40;14.1
45113;BME280;30873;53.908;27.576;2023-05-14T10:56:32;1023.2;;;40.3;14.1
45113;BME280;30873;53.908;27.576;2023-05-14T11:01:52;1023.2;;;40.8;13.8
45113;BME280;30873;53.908;27.576;2023-05-14T11:06:52;1023.2;;;42.2;13.2
45113;BME280;30873;53.908;27.576;2023-05-14T11:11:58;1023.1;;;43;12.5
45113;BME280;30873;53.908;27.576;2023-05-14T11:16:42;1023.1;;;43;12.3
45113;BME280;30873;53.908;27.576;2023-05-14T11:22:08;1023;;;42.7;12.3
45113;BME280;30873;53.908;27.576;2023-05-14T11:26:58;1023;;;43.2;12.2
45113;BME280;30873;53.908;27.576;2023-05-14T11:31:58;1022.9;;;43.5;11.8
45113;BME280;30873;53.908;27.576;2023-05-14T11:36:18;1022.8;;;44;11.7
45113;BME280;30873;53.908;27.576;2023-05-14T11:42:09;1022.8;;;44.6;11.2
45113;BME280;30873;53.908;27.576;2023-05-14T11:46:30;1022.7;;;45.3;10.8
45113;BME280;30873;53.908;27.576;2023-05-14T11:51:55;1022.7;;;45.6;10.6
45113;BME280;30873;53.908;27.576;2023-05-14T11:57:09;1022.7;;;45.2;10.6
45113;BME280;30873;53.908;27.576;2023-05-14T12:01:18;1022.6;;;42.2;11.6
45113;BME280;30873;53.908;27.576;2023-05-14T12:07:07;1022.6;;;40.9;12.1
45113;BME280;30873;53.908;27.576;2023-05-14T12:12:08;1022.6;;;42;11.7
45113;BME280;30873;53.908;27.576;2023-05-14T12:16:19;1022.5;;;43.3;11.1
45113;BME280;30873;53.908;27.576;2023-05-14T12:21:59;1022.5;;;43;10.8
45113;BME280;30873;53.908;27.576;2023-05-14T12:26:31;1022.4;;;44.1;10.4
45113;BME280;30873;53.908;27.576;2023-05-14T12:31:30;1022.4;;;45.7;9.7
45113;BME280;30873;53.908;27.576;2023-05-14T12:37:08;1022.3;;;46.4;9.5
45113;BME280;30873;53.908;27.576;2023-05-14T12:42:08;1022.3;;;45.6;9.6
45113;BME280;30873;53.908;27.576;2023-05-14T12:46:38;1022.2;;;45.7;9.4
45113;BME280;30873;53.908;27.576;2023-05-14T12:52:08;1022.1;;;45.7;9.2
45113;BME280;30873;53.908;27.576;2023-05-14T12:57:08;1022.1;;;45.1;9.2
45113;BME280;30873;53.908;27.576;2023-05-14T13:02:08;1022;;;44.7;9.3
45113;BME280;30873;53.908;27.576;2023-05-14T13:06:32;1021.9;;;44.6;9.2
45113;BME280;30873;53.908;27.576;2023-05-14T13:11:30;1021.9;;;44.3;9.5
45113;BME280;30873;53.908;27.576;2023-05-14T13:17:06;1021.8;;;44.1;9.6
45113;BME280;30873;53.908;27.576;2023-05-14T13:21:58;1021.8;;;44.8;9.6
45113;BME280;30873;53.908;27.576;2023-05-14T13:26:18;1021.8;;;45.9;9.3
45113;BME280;30873;53.908;27.576;2023-05-14T13:32:08;1021.8;;;46.2;9.1
45113;BME280;30873;53.908;27.576;2023-05-14T13:37:08;1021.8;;;47.2;8.9
45113;BME280;30873;53.908;27.576;2023-05-14T13:41:28;1021.7;;;46.5;8.7
45113;BME280;30873;53.908;27.576;2023-05-14T13:46:54;1021.7;;;46.2;9.1
45113;BME280;30873;53.908;27.576;2023-05-14T13:51:58;1021.7;;;47.4;8.6
45113;BME280;30873;53.908;27.576;2023-05-14T13:56:28;1021.6;;;48.1;8.3
45113;BME280;30873;53.908;27.576;2023-05-14T14:01:18;1021.6;;;49.2;7.9
45113;BME280;30873;53.908;27.576;2023-05-14T14:06:50;1021.5;;;49;7.9
45113;BME280;30873;53.908;27.576;2023-05-14T14:12:06;1021.5;;;49;7.9
45113;BME280;30873;53.908;27.576;2023-05-14T14:17:08;1021.5;;;47.5;8.2
45113;BME280;30873;53.908;27.576;2023-05-14T14:21:42;1021.4;;;47.2;8.4
45113;BME280;30873;53.908;27.576;2023-05-14T14:27:09;1021.3;;;47;8.3
45113;BME280;30873;53.908;27.576;2023-05-14T14:31:56;1021.3;;;47.1;8.4
45113;BME280;30873;53.908;27.576;2023-05-14T14:36:18;1021.2;;;47.7;8.1
45113;BME280;30873;53.908;27.576;2023-05-14T14:41:36;1021.2;;;47.1;8.2
45113;BME280;30873;53.908;27.576;2023-05-14T14:46:52;1021.2;;;46.9;8.1
45113;BME280;30873;53.908;27.576;2023-05-14T14:51:18;1021.2;;;46.7;8.1
45113;BME280;30873;53.908;27.576;2023-05-14T14:56:50;1021.1;;;45.8;8.4
45113;BME280;30873;53.908;27.576;2023-05-14T15:02:06;1021.1;;;44.7;8.8
45113;BME280;30873;53.908;27.576;2023-05-14T15:06:18;1021;;;45.2;8.6
45113;BME280;30873;53.908;27.576;2023-05-14T15:12:06;1021;;;46;8.3
45113;BME280;30873;53.908;27.576;2023-05-14T15:16:28;1021;;;46.4;8.4
45113;BME280;30873;53.908;27.576;2023-05-14T15:21:18;1020.9;;;46.4;8.3
45113;BME280;30873;53.908;27.576;2023-05-14T15:26:56;1020.9;;;46.5;8.2
45113;BME280;30873;53.908;27.576;2023-05-14T15:31:40;1020.8;;;45.7;8.4
45113;BME280;30873;53.908;27.576;2023-05-14T15:36:40;1020.8;;;45.4;8.7
45113;BME280;30873;53.908;27.576;2023-05-14T15:41:52;1020.7;;;45.5;8.5
45113;BME280;30873;53.908;27.576;2023-05-14T15:47:08;1020.7;;;44.8;8.9
45113;BME280;30873;53.908;27.576;2023-05-14T15:51:38;1020.6;;;44.3;9
45113;BME280;30873;53.908;27.576;2023-05-14T15:56:54;1020.5;;;43.9;9.3
45113;BME280;30873;53.908;27.576;2023-05-14T16:02:10;1020.5;;;44.2;9.2
45113;BME280;30873;53.908;27.576;2023-05-14T16:07:10;1020.5;;;44;9.3
45113;BME280;30873;53.908;27.576;2023-05-14T16:11:28;1020.4;;;43.8;9.2
45113;BME280;30873;53.908;27.576;2023-05-14T16:16:18;1020.4;;;43.7;9.3
45113;BME280;30873;53.908;27.576;2023-05-14T16:22:10;1020.4;;;43.2;9.5
45113;BME280;30873;53.908;27.576;2023-05-14T16:26:58;1020.4;;;42.6;9.8
45113;BME280;30873;53.908;27.576;2023-05-14T16:31:18;1020.3;;;42.3;10.1
45113;BME280;30873;53.908;27.576;2023-05-14T16:36:40;1020.3;;;42.2;10.1
45113;BME280;30873;53.908;27.576;2023-05-14T16:42:10;1020.3;;;41.8;10.5
45113;BME280;30873;53.908;27.576;2023-05-14T16:46:34;1020.3;;;41.1;10.8
45113;BME280;30873;53.908;27.576;2023-05-14T16:51:44;1020.3;;;40.3;11.5
45113;BME280;30873;53.908;27.576;2023-05-14T16:57:08;1020.3;;;39.8;11.9
45113;BME280;30873;53.908;27.576;2023-05-14T17:01:30;1020.3;;;38.9;12.4
45113;BME280;30873;53.908;27.576;2023-05-14T17:06:44;1020.4;;;36.4;13.8
45113;BME280;30873;53.908;27.576;2023-05-14T17:11:50;1020.4;;;34.3;15.1
45113;BME280;30873;53.908;27.576;2023-05-14T17:16:18;1020.4;;;32.7;16
45113;BME280;30873;53.908;27.576;2023-05-14T17:21:56;1020.5;;;31.7;16.8
45113;BME280;30873;53.908;27.576;2023-05-14T17:26:52;1020.5;;;31.3;17.2
45113;BME280;30873;53.908;27.576;2023-05-14T17:32:10;1020.5;;;31.3;17.3
45113;BME280;30873;53.908;27.576;2023-05-14T17:36:56;1020.5;;;31.4;17.4
45113;BME280;30873;53.908;27.576;2023-05-14T17:42:10;1020.5;;;30.8;17.9
45113;BME280;30873;53.908;27.576;2023-05-14T17:46:40;1020.5;;;30.1;18.6
45113;BME280;30873;53.908;27.576;2023-05-14T17:52:10;1020.5;;;29.5;19.3
45113;BME280;30873;53.908;27.576;2023-05-14T17:56:30;1020.6;;;28.6;20
45113;BME280;30873;53.908;27.576;2023-05-14T18:01:54;1020.6;;;28;20.7
45113;BME280;30873;53.908;27.576;2023-05-14T18:06:32;1020.7;;;27.6;21.2
45113;BME280;30873;53.908;27.576;2023-05-14T18:11:18;1020.7;;;27.1;21.8
45113;BME280;30873;53.908;27.576;2023-05-14T18:16:56;1020.7;;;26.8;22.3
45113;BME280;30873;53.908;27.576;2023-05-14T18:21:42;1020.7;;;26.5;22.8
45113;BME280;30873;53.908;27.576;2023-05-14T18:26:28;1020.7;;;26.3;23.2
45113;BME280;30873;53.908;27.576;2023-05-14T18:32:10;1020.7;;;26.1;23.5
45113;BME280;30873;53.908;27.576;2023-05-14T18:37:10;1020.7;;;25.8;23.9
45113;BME280;30873;53.908;27.576;2023-05-14T18:41:30;1020.7;;;25.5;24.1
45113;BME280;30873;53.908;27.576;2023-05-14T18:46:56;1020.8;;;25.3;24.6
45113;BME280;30873;53.908;27.576;2023-05-14T18:51:58;1020.8;;;25;25
45113;BME280;30873;53.908;27.576;2023-05-14T18:56:33;1020.9;;;24.9;25.1
45113;BME280;30873;53.908;27.576;2023-05-14T19:01:18;1020.9;;;24.8;25.3
45113;BME280;30873;53.908;27.576;2023-05-14T19:06:52;1020.9;;;24.7;25.6
45113;BME280;30873;53.908;27.576;2023-05-14T19:12:10;1020.8;;;24.5;25.9
45113;BME280;30873;53.908;27.576;2023-05-14T19:17:10;1020.8;;;24.4;26.1
45113;BME280;30873;53.908;27.576;2023-05-14T19:21:42;1020.8;;;24.3;26.2
45113;BME280;30873;53.908;27.576;2023-05-14T19:27:10;1020.8;;;24.1;26.4
45113;BME280;30873;53.908;27.576;2023-05-14T19:31:56;1020.8;;;24;26.8
45113;BME280;30873;53.908;27.576;2023-05-14T19:36:30;1020.8;;;23.8;27
45113;BME280;30873;53.908;27.576;2023-05-14T19:41:40;1020.8;;;23.7;27.3
45113;BME280;30873;53.908;27.576;2023-05-14T19:46:56;1020.8;;;23.6;27.5
45113;BME280;30873;53.908;27.576;2023-05-14T19:51:18;1020.8;;;23.5;27.7
45113;BME280;30873;53.908;27.576;2023-05-14T19:56:52;1020.8;;;23.4;27.9
45113;BME280;30873;53.908;27.576;2023-05-14T20:02:10;1020.7;;;23.2;28.1
45113;BME280;30873;53.908;27.576;2023-05-14T20:06:44;1020.7;;;23.1;28.4
45113;BME280;30873;53.908;27.576;2023-05-14T20:12:08;1020.7;;;23.1;28.5
45113;BME280;30873;53.908;27.576;2023-05-14T20:16:42;1020.7;;;23;28.7
45113;BME280;30873;53.908;27.576;2023-05-14T20:21:30;1020.7;;;22.9;28.9
45113;BME280;30873;53.908;27.576;2023-05-14T20:26:58;1020.7;;;22.8;29.4
45113;BME280;30873;53.908;27.576;2023-05-14T20:31:52;1020.6;;;22.7;29.8
45113;BME280;30873;53.908;27.576;2023-05-14T20:36:18;1020.7;;;22.4;30.5
45113;BME280;30873;53.908;27.576;2023-05-14T20:41:34;1020.7;;;22.1;31.3
45113;BME280;30873;53.908;27.576;2023-05-14T20:47:08;1020.7;;;21.9;31.7
45113;BME280;30873;53.908;27.576;2023-05-14T20:51:40;1020.7;;;21.7;32.4
45113;BME280;30873;53.908;27.576;2023-05-14T20:56:42;1020.7;;;21.4;32.8
45113;BME280;30873;53.908;27.576;2023-05-14T21:02:08;1020.7;;;21.3;33.5
45113;BME280;30873;53.908;27.576;2023-05-14T21:06:58;1020.7;;;21.2;34.2
45113;BME280;30873;53.908;27.576;2023-05-14T21:11:56;1020.7;;;21;35
45113;BME280;30873;53.908;27.576;2023-05-14T21:16:28;1020.7;;;20.8;35.5
45113;BME280;30873;53.908;27.576;2023-05-14T21:22:08;1020.8;;;20.7;35.7
45113;BME280;30873;53.908;27.576;2023-05-14T21:26:56;1020.8;;;20.5;36.3
45113;BME280;30873;53.908;27.576;2023-05-14T21:31:30;1020.7;;;20.4;36.8
45113;BME280;30873;53.908;27.576;2023-05-14T21:36:30;1020.7;;;20.3;37.4
45113;BME280;30873;53.908;27.576;2023-05-14T21:42:10;1020.7;;;20.3;37.9
45113;BME280;30873;53.908;27.576;2023-05-14T21:46:30;1020.7;;;20.2;38.3
45113;BME280;30873;53.908;27.576;2023-05-14T21:51:18;1020.7;;;20;38.9
45113;BME280;30873;53.908;27.576;2023-05-14T21:57:10;1020.7;;;20;39.5
45113;BME280;30873;53.908;27.576;2023-05-14T22:01:18;1020.7;;;19.9;40.1
45113;BME280;30873;53.908;27.576;2023-05-14T22:06:44;1020.7;;;19.8;40.8
45113;BME280;30873;53.908;27.576;2023-05-14T22:11:52;1020.7;;;19.7;41.4
45113;BME280;30873;53.908;27.576;2023-05-14T22:17:10;1020.7;;;19.7;42
45113;BME280;30873;53.908;27.576;2023-05-14T22:22:08;1020.6;;;19.6;42.5
45113;BME280;30873;53.908;27.576;2023-05-14T22:26:52;1020.6;;;19.5;43.2
45113;BME280;30873;53.908;27.576;2023-05-14T22:32:10;1020.6;;;19.3;43.9
45113;BME280;30873;53.908;27.576;2023-05-14T22:36:58;1020.6;;;19.2;44.6
45113;BME280;30873;53.908;27.576;2023-05-14T22:41:28;1020.6;;;19.1;45.3
45113;BME280;30873;53.908;27.576;2023-05-14T22:46:28;1020.5;;;19.1;46.1
45113;BME280;30873;53.908;27.576;2023-05-14T22:51:56;1020.5;;;18.9;46.9
45113;BME280;30873;53.908;27.576;2023-05-14T22:56:30;1020.5;;;18.8;47.7
45113;BME280;30873;53.908;27.576;2023-05-14T23:01:54;1020.5;;;18.7;48.6
45113;BME280;30873;53.908;27.576;2023-05-14T23:07:10;1020.5;;;18.7;48.9
45113;BME280;30873;53.908;27.576;2023-05-14T23:11:44;1020.5;;;18.6;49.5
45113;BME280;30873;53.908;27.576;2023-05-14T23:17:10;1020.5;;;18.4;50.2
45113;BME280;30873;53.908;27.576;2023-05-14T23:21:18;1020.4;;;18.4;51
45113;BME280;30873;53.908;27.576;2023-05-14T23:26:28;1020.4;;;18.3;52
45113;BME280;30873;53.908;27.576;2023-05-14T23:31:58;1020.4;;;18.2;52.7
45113;BME280;30873;53.908;27.576;2023-05-14T23:36:30;1020.4;;;18.1;53.9
45113;BME280;30873;53.908;27.576;2023-05-14T23:41:18;1020.4;;;18;55.8
45113;BME280;30873;53.908;27.576;2023-05-14T23:46:56;1020.4;;;18;57.4
45113;BME280;30873;53.908;27.576;2023-05-14T23:52:10;1020.4;;;18;57.5
45113;BME280;30873;53.908;27.576;2023-05-14T23:56:28;1020.3;;;17.9;58.5
